Nearby METAR Reports

 

KCOS - Colorado Springs, Colorado, USA
Distance from station: S 6mi, 9km
Updated: 07/16/2018 2:54pm
Mostly cloudy
Mostly cloudy
 Wind from ESE
Wind: ESE 9 mph , 15 km/h, Gust: 17 mph , 28 km/h
Temperature: 75°F , 24°C
Dew Point: 61°F , 16°C
Humidity: 61%
Barometer: 30.30 inHg , 1026.1 hPa
Clouds: Mostly cloudy
Visibility: 10 miles , 16 km
Cloud details: Few Clouds 3000 ft
Partly cloudy 7000 ft
Mostly cloudy 15000 ft
Mostly cloudy 20000 ft
2018/07/16 20:54 KCOS 162054Z 12008G15KT 10SM FEW030 SCT070 BKN150 BKN200 24/16 A3030 RMK AO2 SLP176 T02440161 58009
KAFF - Usaf Academy/Cos, Colorado, USA
Distance from station: NW 7mi, 12km
Updated: 07/16/2018 2:56pm
Few Clouds
Few Clouds
 Wind from SSE
Wind: SSE 9 mph , 15 km/h, Gust: 17 mph , 28 km/h
Temperature: 79°F , 26°C
Dew Point: 59°F , 15°C
Humidity: 51%
Barometer: 30.31 inHg , 1026.4 hPa
Clouds: Few Clouds
Visibility: 10 miles , 16 km
Cloud details: Few Clouds 3100 ft
2018/07/16 20:56 KAFF 162056Z AUTO 15008G15KT 10SM FEW031 26/15 A3031 RMK AO2 SLP171 T02560150 58006
 
KFLY - Co Spngs Meadow, Colorado, USA
Distance from station: ENE 8mi, 13km
Updated: 07/16/2018 3:15pm
Clear
Clear
 Wind from S
Wind: S 8 mph , 13 km/h
Temperature: 79°F , 26°C
Dew Point: 54°F , 12°C
Humidity: 42%
Barometer: 30.35 inHg , 1027.8 hPa
Clouds: Clear
Visibility: 10 miles , 16 km
2018/07/16 21:15 KFLY 162115Z AUTO 19007KT 10SM CLR 26/12 A3035 RMK AO2 T02580124
KFCS - Fort Carson, Colorado, USA
Distance from station: S 17mi, 27km
Updated: 07/16/2018 2:56pm
Mostly cloudy
Mostly cloudy
 Wind from calm
Wind: Calm
Temperature: 77°F , 25°C
Dew Point: 59°F , 15°C
Humidity: 54%
Barometer: 30.26 inHg , 1024.7 hPa
Clouds: Mostly cloudy
Visibility: 10 miles , 16 km
Cloud details: Partly cloudy 3500 ft
Mostly cloudy 14000 ft
Mostly cloudy 20000 ft
2018/07/16 20:56 KFCS 162056Z AUTO 00000KT 10SM SCT035 BKN140 BKN200 25/15 A3026 RMK AO2 SLP192 T02540154 57009 $
 
KMNH - Monument/Elbert, Colorado, USA
Distance from station: N 22mi, 35km
Updated: 07/16/2018 3:29pm
Partly cloudy
Partly cloudy
 Wind from S
Wind: S 13 mph , 20 km/h
Temperature: 75°F , 24°C
Dew Point: 55°F , 13°C
Humidity: 50%
Barometer: 30.34 inHg , 1027.4 hPa
Clouds: Partly cloudy
Visibility: 10 miles , 16 km
Cloud details: Partly cloudy 5000 ft
Partly cloudy 7000 ft
Partly cloudy 8000 ft
2018/07/16 21:29 KMNH 162129Z AUTO 18011KT 130V190 10SM SCT050 SCT070 SCT080 24/13 A3034 RMK AO2
K1V6 - Canon City, Colorado, USA
Distance from station: SSW 39mi, 62km
Updated: 07/14/2018 7:10pm
NOT Current
Clear
Clear
 Wind from E
Wind: E 15 mph , 24 km/h, Gust: 21 mph , 33 km/h
Temperature: 90°F , 32°C
Dew Point: 50°F , 10°C
Humidity: 26%
Barometer: 30.12 inHg , 1020 hPa
Clouds: Clear
Visibility: 10 miles , 16 km
2018/07/15 01:10 K1V6 150110Z AUTO 08013G18KT 10SM CLR 32/10 A3012 RMK AO2
 
KPUB - Pueblo, Colorado, USA
Distance from station: SSE 44mi, 71km
Updated: 07/16/2018 2:53pm
Clear
Clear
 Wind from ESE
Wind: ESE 10 mph , 17 km/h
Temperature: 84°F , 29°C
Heat Index: 84°F , 29°C
Dew Point: 61°F , 16°C
Humidity: 45%
Barometer: 30.17 inHg , 1021.7 hPa
Clouds: Clear
Visibility: 10 miles , 16 km
2018/07/16 20:53 KPUB 162053Z 11009KT 10SM CLR 29/16 A3017 RMK AO2 SLP149 T02940161 58016
KAPA - Denver/Arapahoe, Colorado, USA
Distance from station: N 47mi, 75km
Updated: 07/16/2018 2:53pm
Few Clouds
Few Clouds
 Wind from calm
Wind: Calm
Temperature: 84°F , 29°C
Dew Point: 52°F , 11°C
Humidity: 33%
Barometer: 30.23 inHg , 1023.7 hPa
Clouds: Few Clouds
Visibility: 10 miles , 16 km
Cloud details: Few Clouds 8000 ft
Few Clouds 22000 ft
2018/07/16 20:53 KAPA 162053Z 00000KT 10SM FEW080 FEW220 29/11 A3023 RMK AO2 SLP163 T02890111 58015 $